Time;durP1;ratioP1;P1;durP2;ratioP2;P2;SDS_P1;SDS_P2;PMS_P1;PMS_P2;Temp;Humidity;BMP_temperature;BMP_pressure;BME280_temperature;BME280_humidity;BME280_pressure;Samples;Min_cycle;Max_cycle;Signal;HPM_P1;HPM_P2
2022/05/08 00:02:19;;;;;;;26.13;5.25;;;;;;;;;;5063962;28;20099;-81
2022/05/08 00:04:49;;;;;;;26.92;5.85;;;;;;;;;;5075113;28;20056;-82
2022/05/08 00:07:16;;;;;;;23.23;5.13;;;;;;;;;;5079574;28;20158;-82
2022/05/08 00:09:42;;;;;;;22.98;5.00;;;;;;;;;;5078917;28;20079;-82
2022/05/08 00:12:11;;;;;;;23.27;5.35;;;;;;;;;;5068279;28;20052;-82
2022/05/08 00:14:37;;;;;;;22.95;4.72;;;;;;;;;;5061878;28;20107;-82
2022/05/08 00:17:03;;;;;;;26.48;5.57;;;;;;;;;;5081008;28;20052;-82
2022/05/08 00:19:29;;;;;;;25.65;5.50;;;;;;;;;;5081369;28;20051;-81
2022/05/08 00:21:55;;;;;;;33.78;5.18;;;;;;;;;;5077967;28;20111;-81
2022/05/08 00:24:21;;;;;;;21.95;5.18;;;;;;;;;;5077147;28;20048;-82
2022/05/08 00:26:47;;;;;;;22.73;5.30;;;;;;;;;;5078877;28;20743;-82
2022/05/08 00:29:15;;;;;;;28.00;5.90;;;;;;;;;;5061953;28;20051;-82
2022/05/08 00:31:41;;;;;;;27.20;4.60;;;;;;;;;;5078009;28;20083;-81
2022/05/08 00:34:07;;;;;;;22.45;5.03;;;;;;;;;;5079750;28;20044;-82
2022/05/08 00:36:33;;;;;;;26.30;5.00;;;;;;;;;;5060166;28;20044;-81
2022/05/08 00:38:59;;;;;;;20.13;4.35;;;;;;;;;;5043356;28;20044;-82
2022/05/08 00:41:25;;;;;;;26.35;5.00;;;;;;;;;;5057211;28;20120;-82
2022/05/08 00:43:51;;;;;;;24.35;5.07;;;;;;;;;;5072631;28;20045;-81
2022/05/08 00:46:17;;;;;;;27.05;5.43;;;;;;;;;;5077078;28;20165;-82
2022/05/08 00:48:43;;;;;;;23.50;4.80;;;;;;;;;;5047229;28;20068;-82
2022/05/08 00:51:10;;;;;;;22.40;5.60;;;;;;;;;;5080013;28;20036;-82
2022/05/08 00:53:37;;;;;;;23.45;5.70;;;;;;;;;;5079539;28;20048;-82
2022/05/08 00:56:07;;;;;;;20.77;4.78;;;;;;;;;;5062343;28;20147;-81
2022/05/08 00:58:34;;;;;;;25.88;5.55;;;;;;;;;;5078771;28;20047;-82
2022/05/08 01:01:00;;;;;;;30.25;5.90;;;;;;;;;;5079262;28;20044;-82
2022/05/08 01:03:27;;;;;;;24.20;5.65;;;;;;;;;;5079427;28;20089;-82
2022/05/08 01:05:54;;;;;;;25.50;5.72;;;;;;;;;;5063288;28;20123;-83
2022/05/08 01:08:21;;;;;;;24.30;5.25;;;;;;;;;;5065155;28;20071;-83
2022/05/08 01:10:47;;;;;;;22.92;5.63;;;;;;;;;;5066666;28;20486;-83
2022/05/08 01:13:13;;;;;;;27.25;6.18;;;;;;;;;;5046607;28;20128;-82
2022/05/08 01:15:44;;;;;;;28.52;6.10;;;;;;;;;;5079898;28;20115;-82
2022/05/08 01:18:13;;;;;;;24.17;5.97;;;;;;;;;;5083542;28;20044;-82
2022/05/08 01:20:40;;;;;;;25.40;5.60;;;;;;;;;;5081313;28;20044;-82
2022/05/08 01:23:07;;;;;;;23.48;5.35;;;;;;;;;;5047764;28;20090;-83
2022/05/08 01:25:45;;;;;;;23.92;5.45;;;;;;;;;;5063787;28;20040;-83
2022/05/08 01:28:12;;;;;;;26.38;5.93;;;;;;;;;;5080549;28;20502;-83
2022/05/08 01:30:39;;;;;;;20.77;6.20;;;;;;;;;;5081997;28;20134;-83
2022/05/08 01:33:05;;;;;;;23.52;5.88;;;;;;;;;;5079803;28;20044;-83
2022/05/08 01:35:31;;;;;;;23.00;6.40;;;;;;;;;;5081495;28;20043;-83
2022/05/08 01:37:57;;;;;;;23.50;6.68;;;;;;;;;;5064313;28;20048;-83
2022/05/08 01:40:23;;;;;;;29.08;6.18;;;;;;;;;;5084415;28;20552;-83
2022/05/08 01:42:49;;;;;;;22.25;5.68;;;;;;;;;;5064779;28;20045;-83
2022/05/08 01:45:15;;;;;;;28.73;6.07;;;;;;;;;;5078608;28;20086;-83
2022/05/08 01:50:26;;;;;;;26.33;6.30;;;;;;;;;;5079035;28;20630;-82
2022/05/08 01:52:52;;;;;;;21.55;5.72;;;;;;;;;;5063198;28;20044;-83
2022/05/08 01:55:18;;;;;;;24.92;6.28;;;;;;;;;;5080137;28;20048;-82
2022/05/08 01:57:44;;;;;;;23.15;5.97;;;;;;;;;;5078867;28;20040;-83
2022/05/08 02:00:11;;;;;;;23.13;6.03;;;;;;;;;;5078985;28;20044;-83
2022/05/08 02:02:37;;;;;;;23.92;5.50;;;;;;;;;;5079429;28;20044;-83
2022/05/08 02:05:04;;;;;;;23.73;5.40;;;;;;;;;;5043618;28;20051;-83
2022/05/08 02:07:30;;;;;;;24.50;6.40;;;;;;;;;;5059136;28;20056;-83
2022/05/08 02:09:57;;;;;;;20.90;6.05;;;;;;;;;;5078278;28;20084;-83
2022/05/08 02:12:23;;;;;;;23.83;6.40;;;;;;;;;;5079710;28;20490;-83
2022/05/08 02:14:49;;;;;;;29.33;6.78;;;;;;;;;;5080095;28;20051;-83
2022/05/08 02:17:15;;;;;;;25.50;6.68;;;;;;;;;;5061245;28;20040;-83
2022/05/08 02:19:41;;;;;;;24.83;6.65;;;;;;;;;;5080177;28;20040;-83
2022/05/08 02:22:07;;;;;;;25.38;6.60;;;;;;;;;;5079980;28;20052;-84
2022/05/08 02:24:33;;;;;;;27.85;6.80;;;;;;;;;;5059435;28;20486;-84
2022/05/08 02:26:59;;;;;;;20.88;6.80;;;;;;;;;;5062857;28;20375;-84
2022/05/08 02:29:25;;;;;;;26.17;6.20;;;;;;;;;;5080581;28;20083;-83
2022/05/08 02:31:51;;;;;;;21.55;6.05;;;;;;;;;;5077698;28;20131;-82
2022/05/08 02:34:17;;;;;;;25.52;6.78;;;;;;;;;;5078516;28;20506;-83
2022/05/08 02:36:43;;;;;;;22.67;6.75;;;;;;;;;;5063614;28;20040;-82
2022/05/08 02:39:09;;;;;;;30.23;7.32;;;;;;;;;;5063565;28;20503;-83
2022/05/08 02:41:34;;;;;;;28.35;7.43;;;;;;;;;;5082125;28;20040;-83
2022/05/08 02:44:01;;;;;;;25.92;7.03;;;;;;;;;;5074616;28;20041;-83
2022/05/08 02:46:27;;;;;;;28.50;7.25;;;;;;;;;;5063850;28;20129;-82
2022/05/08 02:48:53;;;;;;;26.58;8.23;;;;;;;;;;5080649;28;20044;-82
2022/05/08 02:51:19;;;;;;;32.67;8.93;;;;;;;;;;5070663;28;20041;-82
2022/05/08 02:53:45;;;;;;;34.22;8.75;;;;;;;;;;5048350;28;20410;-83
2022/05/08 02:58:55;;;;;;;29.30;8.27;;;;;;;;;;5052637;28;20060;-84
2022/05/08 03:01:21;;;;;;;28.75;7.90;;;;;;;;;;5051592;28;20033;-83
2022/05/08 03:03:48;;;;;;;23.08;7.40;;;;;;;;;;5064109;28;20040;-82
2022/05/08 03:06:14;;;;;;;24.00;8.05;;;;;;;;;;5063483;28;20048;-83
2022/05/08 03:08:40;;;;;;;29.25;9.00;;;;;;;;;;5081305;28;20437;-82
2022/05/08 03:13:51;;;;;;;31.92;7.85;;;;;;;;;;5063047;28;20040;-83
2022/05/08 03:16:17;;;;;;;26.38;8.27;;;;;;;;;;5062710;28;20063;-82
2022/05/08 03:18:45;;;;;;;26.50;8.02;;;;;;;;;;5064671;28;20083;-82
2022/05/08 03:21:12;;;;;;;29.02;7.63;;;;;;;;;;5048533;28;20044;-82
2022/05/08 03:23:38;;;;;;;27.33;8.43;;;;;;;;;;5043311;28;20079;-83
2022/05/08 03:26:04;;;;;;;22.75;7.50;;;;;;;;;;5065767;28;20084;-83
2022/05/08 03:28:31;;;;;;;21.90;7.82;;;;;;;;;;5082617;28;20043;-83
2022/05/08 03:30:59;;;;;;;29.77;7.55;;;;;;;;;;5081203;28;20052;-82
2022/05/08 03:33:25;;;;;;;24.60;7.82;;;;;;;;;;5080599;28;20037;-83
2022/05/08 03:35:51;;;;;;;30.67;7.78;;;;;;;;;;5064867;28;20048;-83
2022/05/08 03:38:20;;;;;;;26.17;8.07;;;;;;;;;;5081341;28;20047;-83
2022/05/08 03:40:46;;;;;;;24.77;8.00;;;;;;;;;;5043738;28;20051;-83
2022/05/08 03:43:12;;;;;;;25.88;7.13;;;;;;;;;;5071785;28;20044;-83
2022/05/08 03:45:38;;;;;;;23.33;7.68;;;;;;;;;;5058345;28;20051;-83
2022/05/08 03:48:05;;;;;;;22.13;8.25;;;;;;;;;;5045891;28;20375;-83
2022/05/08 03:50:31;;;;;;;24.30;7.57;;;;;;;;;;5080789;28;20043;-82
2022/05/08 03:52:57;;;;;;;24.52;8.20;;;;;;;;;;5066112;28;20136;-82
2022/05/08 03:55:24;;;;;;;23.83;7.63;;;;;;;;;;5082537;28;20049;-83
2022/05/08 03:57:50;;;;;;;23.88;7.45;;;;;;;;;;5082155;28;20051;-83
2022/05/08 04:00:16;;;;;;;20.85;7.57;;;;;;;;;;5079412;28;20049;-84
2022/05/08 04:02:42;;;;;;;22.95;7.85;;;;;;;;;;5082410;28;20044;-83
2022/05/08 04:05:09;;;;;;;20.10;7.45;;;;;;;;;;5044154;28;20047;-83
2022/05/08 04:07:35;;;;;;;19.65;7.32;;;;;;;;;;5071159;28;20072;-83
2022/05/08 04:10:01;;;;;;;24.17;7.10;;;;;;;;;;5078610;28;20084;-82
2022/05/08 04:12:27;;;;;;;19.33;7.90;;;;;;;;;;5082470;28;20120;-83
2022/05/08 04:14:57;;;;;;;24.80;7.45;;;;;;;;;;5080672;28;20036;-82
2022/05/08 04:17:24;;;;;;;28.65;7.97;;;;;;;;;;5080176;28;20056;-83
2022/05/08 04:19:50;;;;;;;20.40;7.45;;;;;;;;;;5060627;28;20055;-83
2022/05/08 04:25:00;;;;;;;19.55;7.45;;;;;;;;;;5074849;28;20041;-84
2022/05/08 04:27:26;;;;;;;23.73;7.50;;;;;;;;;;5063988;28;20121;-83
2022/05/08 04:29:52;;;;;;;23.83;7.40;;;;;;;;;;5072178;28;20376;-82
2022/05/08 04:32:18;;;;;;;21.40;6.85;;;;;;;;;;5082677;28;20051;-83
2022/05/08 04:34:44;;;;;;;18.48;6.65;;;;;;;;;;5079019;28;20052;-83
2022/05/08 04:37:10;;;;;;;17.33;6.72;;;;;;;;;;5076297;28;20041;-85
2022/05/08 04:39:36;;;;;;;16.90;6.05;;;;;;;;;;5083085;28;20391;-83
2022/05/08 04:42:03;;;;;;;16.25;5.85;;;;;;;;;;5087135;28;20052;-83
2022/05/08 04:44:29;;;;;;;19.70;6.28;;;;;;;;;;5068645;28;20041;-83
2022/05/08 04:46:55;;;;;;;15.65;6.00;;;;;;;;;;5066333;28;20041;-83
2022/05/08 04:49:21;;;;;;;21.75;6.95;;;;;;;;;;5064993;28;20040;-82
2022/05/08 04:51:47;;;;;;;22.05;7.25;;;;;;;;;;5066626;28;20375;-83
2022/05/08 04:54:13;;;;;;;19.95;6.90;;;;;;;;;;5086282;28;20043;-83
2022/05/08 04:56:39;;;;;;;18.90;5.85;;;;;;;;;;5085287;28;20482;-84
2022/05/08 04:59:06;;;;;;;18.90;6.88;;;;;;;;;;5084711;28;20037;-83
2022/05/08 05:01:32;;;;;;;19.10;6.50;;;;;;;;;;5068328;28;20083;-83
2022/05/08 05:03:58;;;;;;;19.10;6.93;;;;;;;;;;5084003;28;20048;-83
2022/05/08 05:06:25;;;;;;;19.65;7.07;;;;;;;;;;5065646;28;20130;-84
2022/05/08 05:08:51;;;;;;;20.13;7.15;;;;;;;;;;5066738;28;20052;-82
2022/05/08 05:11:17;;;;;;;21.58;6.88;;;;;;;;;;5086722;28;20044;-83
2022/05/08 05:13:43;;;;;;;21.35;7.35;;;;;;;;;;5085366;28;20084;-82
2022/05/08 05:16:09;;;;;;;20.30;6.75;;;;;;;;;;5086760;28;20128;-83
2022/05/08 05:18:35;;;;;;;24.35;7.13;;;;;;;;;;5085231;28;20478;-82
2022/05/08 05:21:01;;;;;;;17.95;6.70;;;;;;;;;;5067391;28;20036;-83
2022/05/08 05:23:27;;;;;;;19.48;6.72;;;;;;;;;;5086534;28;20045;-84
2022/05/08 05:25:53;;;;;;;18.00;6.28;;;;;;;;;;5084114;28;20047;-83
2022/05/08 05:28:19;;;;;;;19.98;6.32;;;;;;;;;;5087874;28;20087;-83
2022/05/08 05:30:45;;;;;;;15.13;6.18;;;;;;;;;;5080074;28;20096;-84
2022/05/08 05:33:15;;;;;;;21.77;6.20;;;;;;;;;;5069030;28;20044;-83
2022/05/08 05:35:41;;;;;;;13.23;5.37;;;;;;;;;;5087172;28;20051;-84
2022/05/08 05:38:08;;;;;;;18.30;5.65;;;;;;;;;;5086726;28;20394;-84
2022/05/08 05:40:34;;;;;;;14.15;4.80;;;;;;;;;;5065088;28;20056;-83
2022/05/08 05:43:00;;;;;;;16.13;4.80;;;;;;;;;;5071479;28;20039;-83
2022/05/08 05:45:26;;;;;;;15.55;4.28;;;;;;;;;;5085711;28;20072;-83
2022/05/08 05:47:59;;;;;;;14.48;3.97;;;;;;;;;;5084924;28;20078;-84
2022/05/08 05:50:26;;;;;;;14.13;3.78;;;;;;;;;;5081599;28;20064;-84
2022/05/08 05:52:52;;;;;;;13.38;3.65;;;;;;;;;;5083410;28;20525;-83
2022/05/08 05:55:18;;;;;;;12.55;3.42;;;;;;;;;;5068370;28;20051;-84
2022/05/08 05:57:45;;;;;;;12.95;4.07;;;;;;;;;;5085312;28;20041;-82
2022/05/08 06:00:15;;;;;;;14.73;3.88;;;;;;;;;;5084659;28;20224;-83
2022/05/08 06:02:43;;;;;;;15.70;4.10;;;;;;;;;;5066732;28;20076;-84
2022/05/08 06:05:10;;;;;;;13.57;3.22;;;;;;;;;;5080060;28;20048;-81
2022/05/08 06:07:37;;;;;;;12.50;3.00;;;;;;;;;;5085280;28;20076;-82
2022/05/08 06:10:04;;;;;;;13.00;2.55;;;;;;;;;;5064782;28;20063;-82
2022/05/08 06:12:30;;;;;;;10.43;2.22;;;;;;;;;;5065834;28;20044;-84
2022/05/08 06:14:56;;;;;;;12.27;2.35;;;;;;;;;;5064420;28;20040;-81
2022/05/08 06:17:22;;;;;;;11.52;2.53;;;;;;;;;;5081262;28;20052;-82
2022/05/08 06:19:48;;;;;;;13.40;2.50;;;;;;;;;;5078413;28;20047;-81
2022/05/08 06:22:14;;;;;;;12.48;2.60;;;;;;;;;;5079509;28;20079;-82
2022/05/08 06:24:40;;;;;;;10.93;2.40;;;;;;;;;;5054639;28;20079;-82
2022/05/08 06:27:06;;;;;;;11.88;2.83;;;;;;;;;;5064953;28;20563;-82
2022/05/08 06:29:33;;;;;;;13.65;2.80;;;;;;;;;;5077066;28;20037;-81
2022/05/08 06:31:59;;;;;;;13.00;2.72;;;;;;;;;;5061306;28;20135;-82
2022/05/08 06:34:26;;;;;;;11.23;3.03;;;;;;;;;;5080474;28;20066;-82
2022/05/08 06:36:52;;;;;;;13.10;2.90;;;;;;;;;;5058171;28;20045;-81
2022/05/08 06:39:18;;;;;;;15.65;2.33;;;;;;;;;;5081169;28;20040;-81
2022/05/08 06:41:44;;;;;;;10.68;2.20;;;;;;;;;;5081618;28;20049;-81
2022/05/08 06:44:10;;;;;;;9.65;2.28;;;;;;;;;;5079998;28;20037;-80
2022/05/08 06:46:36;;;;;;;10.43;2.00;;;;;;;;;;5081241;28;20036;-83
2022/05/08 06:49:05;;;;;;;15.50;2.45;;;;;;;;;;5083690;28;20058;-82
2022/05/08 06:51:31;;;;;;;12.95;2.15;;;;;;;;;;5081695;28;20076;-82
2022/05/08 06:53:57;;;;;;;11.73;2.50;;;;;;;;;;5078214;28;20718;-80
2022/05/08 06:56:25;;;;;;;11.35;2.13;;;;;;;;;;5059640;28;20131;-82
2022/05/08 07:01:40;;;;;;;12.82;2.30;;;;;;;;;;5086072;28;20045;-82
2022/05/08 07:04:07;;;;;;;11.25;2.33;;;;;;;;;;5066018;28;20051;-82
2022/05/08 07:06:34;;;;;;;14.90;2.17;;;;;;;;;;5083726;28;20116;-81
2022/05/08 07:09:00;;;;;;;11.95;2.58;;;;;;;;;;5081016;28;20121;-81
2022/05/08 07:11:26;;;;;;;9.75;2.10;;;;;;;;;;5065478;28;20406;-82
2022/05/08 07:13:55;;;;;;;12.27;2.45;;;;;;;;;;5081521;28;20071;-82
2022/05/08 07:16:21;;;;;;;8.35;2.05;;;;;;;;;;5077414;28;20120;-82
2022/05/08 07:18:47;;;;;;;11.52;2.20;;;;;;;;;;5075997;28;20063;-81
2022/05/08 07:21:13;;;;;;;14.68;2.75;;;;;;;;;;5079069;28;20040;-82
2022/05/08 07:23:39;;;;;;;13.73;2.28;;;;;;;;;;5080133;28;20044;-81
2022/05/08 07:26:06;;;;;;;11.43;2.30;;;;;;;;;;5069627;28;20062;-81
2022/05/08 07:28:32;;;;;;;11.90;2.60;;;;;;;;;;5080021;28;20120;-83
2022/05/08 07:30:58;;;;;;;11.80;2.13;;;;;;;;;;5062613;28;20044;-82
2022/05/08 07:33:25;;;;;;;10.73;2.30;;;;;;;;;;5063488;28;20044;-82
2022/05/08 07:38:35;;;;;;;13.68;2.42;;;;;;;;;;5062125;28;20056;-82
2022/05/08 07:41:02;;;;;;;11.48;2.00;;;;;;;;;;5074617;28;20070;-81
2022/05/08 07:43:29;;;;;;;12.10;2.10;;;;;;;;;;5081395;28;20131;-82
2022/05/08 07:45:55;;;;;;;11.95;2.08;;;;;;;;;;5078448;28;20051;-83
2022/05/08 07:48:21;;;;;;;11.52;2.33;;;;;;;;;;5060979;28;20112;-82
2022/05/08 07:50:47;;;;;;;14.65;2.38;;;;;;;;;;5083602;28;20045;-82
2022/05/08 07:53:13;;;;;;;10.13;2.05;;;;;;;;;;5079118;28;20120;-83
2022/05/08 07:55:40;;;;;;;8.45;1.90;;;;;;;;;;5080530;28;20045;-83
2022/05/08 07:58:06;;;;;;;7.90;2.10;;;;;;;;;;5078907;28;20037;-82
2022/05/08 08:00:32;;;;;;;11.18;2.55;;;;;;;;;;5083218;28;20100;-81
2022/05/08 08:02:58;;;;;;;11.50;2.60;;;;;;;;;;5081206;28;20052;-82
2022/05/08 08:05:24;;;;;;;11.32;2.03;;;;;;;;;;5062840;28;20072;-82
2022/05/08 08:07:50;;;;;;;10.93;2.30;;;;;;;;;;5080240;28;20098;-82
2022/05/08 08:10:16;;;;;;;12.98;2.80;;;;;;;;;;5062397;28;20056;-82
2022/05/08 08:12:43;;;;;;;11.77;2.30;;;;;;;;;;5081637;28;20128;-83
2022/05/08 08:15:10;;;;;;;9.10;2.25;;;;;;;;;;5080438;28;20052;-83
2022/05/08 08:17:36;;;;;;;9.50;2.40;;;;;;;;;;5080172;28;20051;-82
2022/05/08 08:20:03;;;;;;;14.07;2.20;;;;;;;;;;5080270;28;20048;-84
2022/05/08 08:22:29;;;;;;;9.80;1.98;;;;;;;;;;5058281;28;20056;-83
2022/05/08 08:24:55;;;;;;;14.25;2.33;;;;;;;;;;5060444;28;20076;-82
2022/05/08 08:27:21;;;;;;;10.75;2.05;;;;;;;;;;5070575;28;20044;-82
2022/05/08 08:29:47;;;;;;;12.05;2.15;;;;;;;;;;5078765;28;20033;-82
2022/05/08 08:32:13;;;;;;;12.07;2.40;;;;;;;;;;5079036;28;20044;-82
2022/05/08 08:34:39;;;;;;;10.95;2.03;;;;;;;;;;5062589;28;20397;-82
2022/05/08 08:37:05;;;;;;;14.88;2.58;;;;;;;;;;5063621;28;20393;-82
2022/05/08 08:39:32;;;;;;;14.05;2.33;;;;;;;;;;5078396;28;20048;-82
2022/05/08 08:42:16;;;;;;;10.75;1.92;;;;;;;;;;5079464;28;20043;-82
2022/05/08 08:47:45;;;;;;;10.15;2.20;;;;;;;;;;5071534;28;20109;-82
2022/05/08 08:50:12;;;;;;;10.10;2.17;;;;;;;;;;5064086;28;20040;-82
2022/05/08 08:52:38;;;;;;;12.60;2.42;;;;;;;;;;5078362;28;20449;-81
2022/05/08 08:55:08;;;;;;;12.38;2.17;;;;;;;;;;5084084;28;20478;-84
2022/05/08 08:57:34;;;;;;;10.68;2.13;;;;;;;;;;5082826;28;20048;-83
2022/05/08 09:00:00;;;;;;;11.57;2.45;;;;;;;;;;5065546;28;20049;-84
2022/05/08 09:02:26;;;;;;;15.05;2.30;;;;;;;;;;5083431;28;20041;-82
2022/05/08 09:04:54;;;;;;;15.13;2.25;;;;;;;;;;5083542;28;20051;-83
2022/05/08 09:07:38;;;;;;;10.45;2.25;;;;;;;;;;5082071;28;20064;-82
2022/05/08 09:10:07;;;;;;;12.93;2.40;;;;;;;;;;5062928;28;20048;-81
2022/05/08 09:12:34;;;;;;;14.80;2.47;;;;;;;;;;5060872;28;20068;-84
2022/05/08 09:15:00;;;;;;;18.20;2.55;;;;;;;;;;5073304;28;20123;-79
2022/05/08 09:17:43;;;;;;;10.75;2.08;;;;;;;;;;5061530;28;20045;-82
2022/05/08 09:20:29;;;;;;;12.82;2.88;;;;;;;;;;5064864;28;20036;-83
2022/05/08 09:23:02;;;;;;;14.57;2.63;;;;;;;;;;5078332;28;20111;-81
2022/05/08 09:25:47;;;;;;;11.70;2.10;;;;;;;;;;5063760;28;20044;-81
2022/05/08 09:28:13;;;;;;;11.32;2.30;;;;;;;;;;5081436;28;20047;-80
2022/05/08 09:30:59;;;;;;;13.65;2.47;;;;;;;;;;5080899;28;20044;-80
2022/05/08 09:33:48;;;;;;;9.15;2.08;;;;;;;;;;5081673;28;20071;-80
2022/05/08 09:36:24;;;;;;;12.00;2.80;;;;;;;;;;5073073;28;20058;-79
2022/05/08 09:38:54;;;;;;;11.48;2.10;;;;;;;;;;5084048;28;20037;-79
2022/05/08 09:41:39;;;;;;;9.80;2.00;;;;;;;;;;5079708;28;20045;-79
2022/05/08 09:44:09;;;;;;;16.23;3.08;;;;;;;;;;5057144;28;20044;-78
2022/05/08 09:46:38;;;;;;;10.68;2.03;;;;;;;;;;5065312;28;20073;-77
2022/05/08 09:49:08;;;;;;;12.55;2.17;;;;;;;;;;5075436;28;20045;-78
2022/05/08 09:51:34;;;;;;;10.00;2.38;;;;;;;;;;5063653;28;20052;-77
2022/05/08 09:54:00;;;;;;;12.93;2.40;;;;;;;;;;5084653;28;20120;-78
2022/05/08 09:56:26;;;;;;;12.55;2.17;;;;;;;;;;5064314;28;20045;-79
2022/05/08 09:58:52;;;;;;;12.65;2.10;;;;;;;;;;5063542;28;20040;-77
2022/05/08 10:01:19;;;;;;;12.38;2.30;;;;;;;;;;5077313;28;20431;-77
2022/05/08 10:03:46;;;;;;;9.93;2.15;;;;;;;;;;5081234;28;20048;-77
2022/05/08 10:06:13;;;;;;;10.48;2.20;;;;;;;;;;5082858;28;20036;-79
2022/05/08 10:08:39;;;;;;;11.85;2.50;;;;;;;;;;5078963;28;20056;-80
2022/05/08 10:13:59;;;;;;;11.30;2.20;;;;;;;;;;5083029;28;20044;-79
2022/05/08 10:16:45;;;;;;;13.88;2.45;;;;;;;;;;5080120;28;20044;-79
2022/05/08 10:19:17;;;;;;;14.70;2.40;;;;;;;;;;5062696;28;20072;-78
2022/05/08 10:22:06;;;;;;;12.27;2.40;;;;;;;;;;5083381;28;20128;-79
2022/05/08 10:24:35;;;;;;;11.23;2.20;;;;;;;;;;5080974;28;20038;-77
2022/05/08 10:27:10;;;;;;;13.38;2.38;;;;;;;;;;5083057;28;20036;-78
2022/05/08 10:29:37;;;;;;;9.65;2.42;;;;;;;;;;5082430;28;20043;-78
2022/05/08 10:32:05;;;;;;;12.90;2.30;;;;;;;;;;5081791;28;20451;-78
2022/05/08 10:34:35;;;;;;;14.05;2.28;;;;;;;;;;5082629;28;20048;-79
2022/05/08 10:37:12;;;;;;;10.02;2.45;;;;;;;;;;5081713;28;20500;-78
2022/05/08 10:39:42;;;;;;;8.88;2.08;;;;;;;;;;5081538;28;20482;-77
2022/05/08 10:42:27;;;;;;;8.70;2.22;;;;;;;;;;5065189;28;20044;-78
2022/05/08 10:44:53;;;;;;;7.90;2.03;;;;;;;;;;5080665;28;20040;-79
2022/05/08 10:47:40;;;;;;;11.73;2.25;;;;;;;;;;5082185;28;20044;-78
2022/05/08 10:50:06;;;;;;;12.57;2.70;;;;;;;;;;5082290;28;20379;-79
2022/05/08 10:52:33;;;;;;;12.60;2.20;;;;;;;;;;5082722;28;20043;-76
2022/05/08 10:55:12;;;;;;;14.68;2.80;;;;;;;;;;5063697;28;20530;-78
2022/05/08 10:57:39;;;;;;;12.02;2.55;;;;;;;;;;5069549;28;20452;-77
2022/05/08 11:00:10;;;;;;;10.73;2.50;;;;;;;;;;5063341;28;20047;-79
2022/05/08 11:02:52;;;;;;;13.88;2.35;;;;;;;;;;5070888;28;20044;-78
2022/05/08 11:05:19;;;;;;;12.00;2.22;;;;;;;;;;5078755;28;20044;-79
2022/05/08 11:07:50;;;;;;;12.82;2.47;;;;;;;;;;5048685;28;20052;-79
2022/05/08 11:10:26;;;;;;;9.25;2.33;;;;;;;;;;5076541;28;20053;-79
2022/05/08 11:12:56;;;;;;;12.38;2.50;;;;;;;;;;5058189;28;20175;-79
2022/05/08 11:15:22;;;;;;;12.23;2.65;;;;;;;;;;5079358;28;20557;-78
2022/05/08 11:18:01;;;;;;;10.93;2.53;;;;;;;;;;5053091;28;20088;-78
2022/05/08 11:20:27;;;;;;;15.35;2.83;;;;;;;;;;5051867;28;20124;-79
2022/05/08 11:22:56;;;;;;;16.20;2.95;;;;;;;;;;5078216;28;20067;-79
2022/05/08 11:25:22;;;;;;;11.68;2.50;;;;;;;;;;5067684;28;20041;-78
2022/05/08 11:27:52;;;;;;;13.05;2.10;;;;;;;;;;5080757;28;20555;-78
2022/05/08 11:30:31;;;;;;;11.00;2.40;;;;;;;;;;5080851;28;20043;-79
2022/05/08 11:36:04;;;;;;;13.68;2.42;;;;;;;;;;5080900;28;20040;-79
2022/05/08 11:38:44;;;;;;;17.08;2.95;;;;;;;;;;5080260;28;20072;-77
2022/05/08 11:41:11;;;;;;;11.65;2.60;;;;;;;;;;5061837;28;20072;-77
2022/05/08 11:43:44;;;;;;;12.15;2.47;;;;;;;;;;5065559;28;20044;-77
2022/05/08 11:46:18;;;;;;;12.93;2.70;;;;;;;;;;5081392;28;20123;-79
2022/05/08 11:48:46;;;;;;;14.80;2.53;;;;;;;;;;5081731;28;20133;-78
2022/05/08 11:51:13;;;;;;;13.13;2.70;;;;;;;;;;5081635;28;20478;-80
2022/05/08 11:53:49;;;;;;;11.77;2.60;;;;;;;;;;5081070;28;20501;-76
2022/05/08 11:56:38;;;;;;;14.48;2.40;;;;;;;;;;5054297;28;20041;-78
2022/05/08 11:59:15;;;;;;;10.85;2.47;;;;;;;;;;5063249;28;20059;-77
2022/05/08 12:01:47;;;;;;;11.20;2.70;;;;;;;;;;5062095;28;20098;-78
2022/05/08 12:04:26;;;;;;;11.02;2.38;;;;;;;;;;5062352;28;20052;-78
2022/05/08 12:07:05;;;;;;;13.18;2.92;;;;;;;;;;5044941;28;20067;-78
2022/05/08 12:09:33;;;;;;;12.70;2.85;;;;;;;;;;5062080;28;20049;-78
2022/05/08 12:12:18;;;;;;;12.93;2.50;;;;;;;;;;5063040;28;20080;-79
2022/05/08 12:14:44;;;;;;;14.15;2.70;;;;;;;;;;5061930;28;20060;-78
2022/05/08 12:17:10;;;;;;;14.65;3.03;;;;;;;;;;5081707;28;20041;-80
2022/05/08 12:19:36;;;;;;;11.80;2.25;;;;;;;;;;5082703;28;20048;-79
2022/05/08 12:22:22;;;;;;;12.10;2.67;;;;;;;;;;5081789;28;20044;-78
2022/05/08 12:24:48;;;;;;;11.25;2.50;;;;;;;;;;5062929;28;20128;-77
2022/05/08 12:27:14;;;;;;;11.90;2.42;;;;;;;;;;5082628;28;20079;-78
2022/05/08 12:29:43;;;;;;;10.57;2.55;;;;;;;;;;5078558;28;20040;-77
2022/05/08 12:32:09;;;;;;;12.80;2.60;;;;;;;;;;5081368;28;20048;-78
2022/05/08 12:34:35;;;;;;;13.13;2.17;;;;;;;;;;5080998;28;20051;-79
2022/05/08 12:37:01;;;;;;;10.77;2.30;;;;;;;;;;5079774;28;20044;-79
2022/05/08 12:39:30;;;;;;;9.18;2.03;;;;;;;;;;5081963;28;20045;-80
2022/05/08 12:41:56;;;;;;;13.57;2.20;;;;;;;;;;5081213;28;20460;-79
2022/05/08 12:44:22;;;;;;;8.32;1.95;;;;;;;;;;5081148;28;20045;-80
2022/05/08 12:46:49;;;;;;;11.52;2.35;;;;;;;;;;5082473;28;20044;-79
2022/05/08 12:49:16;;;;;;;9.35;2.50;;;;;;;;;;5063085;28;20060;-78
2022/05/08 12:51:42;;;;;;;15.00;2.35;;;;;;;;;;5061935;28;20044;-78
2022/05/08 12:54:09;;;;;;;11.10;2.42;;;;;;;;;;5078849;28;20041;-78
2022/05/08 12:56:35;;;;;;;12.40;2.88;;;;;;;;;;5081197;28;20048;-79
2022/05/08 13:01:46;;;;;;;14.27;3.25;;;;;;;;;;5084577;28;20044;-78
2022/05/08 13:04:12;;;;;;;13.10;2.58;;;;;;;;;;5065045;28;20049;-77
2022/05/08 13:06:39;;;;;;;13.10;2.67;;;;;;;;;;5063787;28;20053;-77
2022/05/08 13:09:09;;;;;;;12.70;2.40;;;;;;;;;;5084645;28;20155;-77
2022/05/08 13:11:35;;;;;;;9.55;2.22;;;;;;;;;;5064937;28;20037;-76
2022/05/08 13:14:02;;;;;;;9.07;2.70;;;;;;;;;;5083231;28;20045;-77
2022/05/08 13:16:28;;;;;;;9.77;2.10;;;;;;;;;;5065374;28;20057;-77
2022/05/08 13:18:54;;;;;;;11.20;2.28;;;;;;;;;;5082737;28;20052;-76
2022/05/08 13:21:20;;;;;;;12.85;2.47;;;;;;;;;;5083458;28;20055;-78
2022/05/08 13:23:47;;;;;;;8.50;2.03;;;;;;;;;;5082470;28;20036;-78
2022/05/08 13:26:13;;;;;;;7.38;2.10;;;;;;;;;;5081754;28;20040;-77
2022/05/08 13:28:39;;;;;;;12.45;2.60;;;;;;;;;;5064435;28;20104;-78
2022/05/08 13:31:05;;;;;;;8.82;3.50;;;;;;;;;;5083496;28;20095;-79
2022/05/08 13:33:32;;;;;;;9.43;2.30;;;;;;;;;;5082280;28;20044;-78
2022/05/08 13:35:58;;;;;;;11.23;2.88;;;;;;;;;;5083016;28;20510;-77
2022/05/08 13:38:24;;;;;;;11.30;2.78;;;;;;;;;;5082069;28;20048;-77
2022/05/08 13:40:51;;;;;;;14.25;3.25;;;;;;;;;;5083438;28;20045;-78
2022/05/08 13:43:17;;;;;;;15.95;2.80;;;;;;;;;;5083185;28;20045;-79
2022/05/08 13:45:44;;;;;;;19.10;10.43;;;;;;;;;;5083459;28;20062;-78
2022/05/08 13:48:10;;;;;;;11.13;2.45;;;;;;;;;;5077758;28;20394;-77
2022/05/08 13:50:36;;;;;;;8.80;2.30;;;;;;;;;;5063550;28;20048;-77
2022/05/08 13:53:05;;;;;;;8.88;2.25;;;;;;;;;;5079472;28;20045;-77
2022/05/08 13:55:31;;;;;;;11.20;2.75;;;;;;;;;;5065529;28;20075;-77
2022/05/08 13:57:57;;;;;;;14.27;3.33;;;;;;;;;;5076685;28;20048;-77
2022/05/08 14:00:23;;;;;;;11.95;2.50;;;;;;;;;;5064780;28;20101;-78
2022/05/08 14:02:49;;;;;;;10.65;2.47;;;;;;;;;;5082791;28;20402;-78
2022/05/08 14:05:15;;;;;;;8.40;2.22;;;;;;;;;;5084206;28;20494;-79
2022/05/08 14:07:41;;;;;;;10.30;2.45;;;;;;;;;;5084692;28;20052;-77
2022/05/08 14:10:09;;;;;;;13.02;2.42;;;;;;;;;;5085533;28;20132;-77
2022/05/08 14:12:35;;;;;;;12.57;2.58;;;;;;;;;;5061630;28;20154;-78
2022/05/08 14:15:01;;;;;;;10.35;2.33;;;;;;;;;;5080448;28;20110;-79
2022/05/08 14:17:28;;;;;;;13.15;2.80;;;;;;;;;;5065768;28;20041;-79
2022/05/08 14:19:54;;;;;;;12.00;2.45;;;;;;;;;;5084756;28;20131;-79
2022/05/08 14:22:20;;;;;;;8.98;2.38;;;;;;;;;;5072230;28;20115;-81
2022/05/08 14:24:46;;;;;;;10.07;2.60;;;;;;;;;;5058976;28;20045;-80
2022/05/08 14:27:12;;;;;;;9.02;2.53;;;;;;;;;;5065536;28;20100;-79
2022/05/08 14:29:38;;;;;;;14.77;2.50;;;;;;;;;;5062595;28;20052;-82
2022/05/08 14:37:34;;;;;;;12.60;2.67;;;;;;;;;;5085565;28;20056;-81
2022/05/08 14:40:00;;;;;;;11.68;2.42;;;;;;;;;;5082100;28;20072;-81
2022/05/08 14:42:26;;;;;;;9.43;1.90;;;;;;;;;;5082989;28;20049;-80
2022/05/08 14:44:52;;;;;;;11.38;2.15;;;;;;;;;;5083400;28;20123;-79
2022/05/08 14:47:19;;;;;;;10.90;2.25;;;;;;;;;;5084255;28;20040;-80
2022/05/08 14:49:45;;;;;;;13.68;2.70;;;;;;;;;;5080673;28;20391;-80
2022/05/08 14:52:12;;;;;;;12.68;2.85;;;;;;;;;;5084196;28;20047;-80
2022/05/08 14:54:38;;;;;;;12.25;2.58;;;;;;;;;;5082546;28;20044;-79
2022/05/08 14:57:04;;;;;;;9.88;2.22;;;;;;;;;;5104735;28;20040;-80
2022/05/08 14:59:31;;;;;;;10.65;2.53;;;;;;;;;;5104274;28;20047;-80
2022/05/08 15:01:56;;;;;;;11.77;2.92;;;;;;;;;;5085388;28;20040;-80
2022/05/08 15:04:22;;;;;;;10.00;2.28;;;;;;;;;;5079256;28;20043;-81
2022/05/08 15:06:48;;;;;;;10.82;2.83;;;;;;;;;;5083119;28;20055;-82
2022/05/08 15:09:15;;;;;;;12.95;2.47;;;;;;;;;;5073800;28;20040;-81